sensor_id;sensor_type;location;lat;lon;timestamp;pressure;altitude;pressure_sealevel;temperature;humidity
32324;BME280;25666;44.350;9.222;2023-02-11T00:01:25;103581.50;;;1.65;100.00
32324;BME280;25666;44.350;9.222;2023-02-11T00:03:52;103583.88;;;1.55;100.00
32324;BME280;25666;44.350;9.222;2023-02-11T00:06:18;103586.78;;;1.60;100.00
32324;BME280;25666;44.350;9.222;2023-02-11T00:08:43;103593.31;;;1.66;100.00
32324;BME280;25666;44.350;9.222;2023-02-11T00:11:15;103595.75;;;1.49;100.00
32324;BME280;25666;44.350;9.222;2023-02-11T00:13:43;103594.31;;;1.40;100.00
32324;BME280;25666;44.350;9.222;2023-02-11T00:16:10;103592.91;;;1.31;100.00
32324;BME280;25666;44.350;9.222;2023-02-11T00:18:37;103586.44;;;1.19;100.00
32324;BME280;25666;44.350;9.222;2023-02-11T00:21:07;103592.16;;;1.04;100.00
32324;BME280;25666;44.350;9.222;2023-02-11T00:23:33;103589.41;;;1.11;100.00
32324;BME280;25666;44.350;9.222;2023-02-11T00:25:58;103586.00;;;1.22;100.00
32324;BME280;25666;44.350;9.222;2023-02-11T00:28:24;103583.47;;;1.14;100.00
32324;BME280;25666;44.350;9.222;2023-02-11T00:30:54;103584.47;;;1.26;100.00
32324;BME280;25666;44.350;9.222;2023-02-11T00:33:20;103580.72;;;1.20;100.00
32324;BME280;25666;44.350;9.222;2023-02-11T00:35:45;103588.91;;;1.27;100.00
32324;BME280;25666;44.350;9.222;2023-02-11T00:38:10;103581.97;;;1.24;100.00
32324;BME280;25666;44.350;9.222;2023-02-11T00:40:36;103586.69;;;1.42;100.00
32324;BME280;25666;44.350;9.222;2023-02-11T00:43:02;103582.13;;;1.29;100.00
32324;BME280;25666;44.350;9.222;2023-02-11T00:45:27;103588.09;;;1.20;100.00
32324;BME280;25666;44.350;9.222;2023-02-11T00:47:55;103586.22;;;1.14;100.00
32324;BME280;25666;44.350;9.222;2023-02-11T00:50:20;103586.22;;;1.14;100.00
32324;BME280;25666;44.350;9.222;2023-02-11T00:52:47;103586.66;;;1.11;100.00
32324;BME280;25666;44.350;9.222;2023-02-11T00:55:13;103579.06;;;1.13;100.00
32324;BME280;25666;44.350;9.222;2023-02-11T00:57:38;103587.47;;;1.18;100.00
32324;BME280;25666;44.350;9.222;2023-02-11T01:00:04;103585.19;;;1.08;100.00
32324;BME280;25666;44.350;9.222;2023-02-11T01:02:30;103587.13;;;0.94;100.00
32324;BME280;25666;44.350;9.222;2023-02-11T01:04:56;103586.69;;;1.04;100.00
32324;BME280;25666;44.350;9.222;2023-02-11T01:07:24;103585.84;;;1.03;100.00
32324;BME280;25666;44.350;9.222;2023-02-11T01:09:50;103586.72;;;0.91;100.00
32324;BME280;25666;44.350;9.222;2023-02-11T01:12:16;103589.84;;;1.07;100.00
32324;BME280;25666;44.350;9.222;2023-02-11T01:14:41;103595.16;;;1.02;100.00
32324;BME280;25666;44.350;9.222;2023-02-11T01:17:07;103597.00;;;1.08;100.00
32324;BME280;25666;44.350;9.222;2023-02-11T01:19:32;103596.34;;;1.13;100.00
32324;BME280;25666;44.350;9.222;2023-02-11T01:21:58;103586.94;;;0.96;100.00
32324;BME280;25666;44.350;9.222;2023-02-11T01:24:23;103585.47;;;1.00;100.00
32324;BME280;25666;44.350;9.222;2023-02-11T01:26:49;103586.06;;;1.02;100.00
32324;BME280;25666;44.350;9.222;2023-02-11T01:29:14;103586.72;;;0.97;100.00
32324;BME280;25666;44.350;9.222;2023-02-11T01:31:40;103585.03;;;0.96;100.00
32324;BME280;25666;44.350;9.222;2023-02-11T01:34:05;103575.50;;;1.05;100.00
32324;BME280;25666;44.350;9.222;2023-02-11T01:36:31;103570.47;;;1.02;100.00
32324;BME280;25666;44.350;9.222;2023-02-11T01:38:59;103570.25;;;0.97;100.00
32324;BME280;25666;44.350;9.222;2023-02-11T01:41:24;103575.09;;;1.02;100.00
32324;BME280;25666;44.350;9.222;2023-02-11T01:43:49;103570.06;;;0.99;100.00
32324;BME280;25666;44.350;9.222;2023-02-11T01:46:33;103564.78;;;0.97;100.00
32324;BME280;25666;44.350;9.222;2023-02-11T01:49:10;103559.06;;;1.05;100.00
32324;BME280;25666;44.350;9.222;2023-02-11T01:51:47;103550.38;;;1.08;100.00
32324;BME280;25666;44.350;9.222;2023-02-11T01:54:19;103551.47;;;1.01;100.00
32324;BME280;25666;44.350;9.222;2023-02-11T01:57:06;103551.06;;;0.97;100.00
32324;BME280;25666;44.350;9.222;2023-02-11T02:02:35;103550.69;;;0.94;100.00
32324;BME280;25666;44.350;9.222;2023-02-11T02:05:09;103541.84;;;0.85;100.00
32324;BME280;25666;44.350;9.222;2023-02-11T02:07:44;103537.63;;;0.83;100.00
32324;BME280;25666;44.350;9.222;2023-02-11T02:10:16;103532.88;;;0.65;100.00
32324;BME280;25666;44.350;9.222;2023-02-11T02:12:43;103531.16;;;0.64;100.00
32324;BME280;25666;44.350;9.222;2023-02-11T02:15:23;103533.03;;;0.77;100.00
32324;BME280;25666;44.350;9.222;2023-02-11T02:18:02;103535.13;;;0.81;100.00
32324;BME280;25666;44.350;9.222;2023-02-11T02:29:30;103520.31;;;0.89;100.00
32324;BME280;25666;44.350;9.222;2023-02-11T02:32:18;103515.50;;;0.84;100.00
32324;BME280;25666;44.350;9.222;2023-02-11T02:34:53;103511.44;;;0.93;100.00
32324;BME280;25666;44.350;9.222;2023-02-11T02:37:48;103514.38;;;0.92;100.00
32324;BME280;25666;44.350;9.222;2023-02-11T02:40:29;103516.22;;;1.04;100.00
32324;BME280;25666;44.350;9.222;2023-02-11T02:42:57;103510.38;;;0.88;100.00
32324;BME280;25666;44.350;9.222;2023-02-11T02:45:24;103513.19;;;0.81;100.00
32324;BME280;25666;44.350;9.222;2023-02-11T02:47:50;103508.97;;;0.79;100.00
32324;BME280;25666;44.350;9.222;2023-02-11T02:50:19;103500.53;;;0.80;100.00
32324;BME280;25666;44.350;9.222;2023-02-11T02:52:59;103507.47;;;0.83;100.00
32324;BME280;25666;44.350;9.222;2023-02-11T03:01:33;103507.31;;;0.71;100.00
32324;BME280;25666;44.350;9.222;2023-02-11T03:04:15;103509.00;;;0.72;100.00
32324;BME280;25666;44.350;9.222;2023-02-11T03:09:27;103510.06;;;0.71;100.00
32324;BME280;25666;44.350;9.222;2023-02-11T03:11:55;103505.78;;;0.82;100.00
32324;BME280;25666;44.350;9.222;2023-02-11T03:14:23;103506.63;;;0.82;100.00
32324;BME280;25666;44.350;9.222;2023-02-11T03:16:52;103511.25;;;0.88;100.00
32324;BME280;25666;44.350;9.222;2023-02-11T03:19:26;103504.09;;;0.87;100.00
32324;BME280;25666;44.350;9.222;2023-02-11T03:21:53;103507.31;;;0.78;100.00
32324;BME280;25666;44.350;9.222;2023-02-11T03:24:29;103506.19;;;0.85;100.00
32324;BME280;25666;44.350;9.222;2023-02-11T03:26:57;103507.88;;;0.86;100.00
32324;BME280;25666;44.350;9.222;2023-02-11T03:29:38;103510.63;;;0.86;100.00
32324;BME280;25666;44.350;9.222;2023-02-11T03:37:27;103497.44;;;0.64;100.00
32324;BME280;25666;44.350;9.222;2023-02-11T03:40:05;103493.44;;;0.60;100.00
32324;BME280;25666;44.350;9.222;2023-02-11T03:42:39;103503.59;;;0.52;100.00
32324;BME280;25666;44.350;9.222;2023-02-11T03:45:12;103493.50;;;0.46;100.00
32324;BME280;25666;44.350;9.222;2023-02-11T03:47:44;103495.59;;;0.51;100.00
32324;BME280;25666;44.350;9.222;2023-02-11T03:50:13;103495.97;;;0.61;100.00
32324;BME280;25666;44.350;9.222;2023-02-11T03:52:40;103503.59;;;0.59;100.00
32324;BME280;25666;44.350;9.222;2023-02-11T03:55:12;103503.34;;;0.61;100.00
32324;BME280;25666;44.350;9.222;2023-02-11T03:57:39;103505.06;;;0.55;100.00
32324;BME280;25666;44.350;9.222;2023-02-11T04:00:05;103503.59;;;0.52;100.00
32324;BME280;25666;44.350;9.222;2023-02-11T04:02:37;103502.47;;;0.67;100.00
32324;BME280;25666;44.350;9.222;2023-02-11T04:05:05;103505.25;;;0.60;100.00
32324;BME280;25666;44.350;9.222;2023-02-11T04:07:31;103515.63;;;0.51;100.00
32324;BME280;25666;44.350;9.222;2023-02-11T04:09:57;103505.94;;;0.42;100.00
32324;BME280;25666;44.350;9.222;2023-02-11T04:12:23;103510.28;;;0.63;100.00
32324;BME280;25666;44.350;9.222;2023-02-11T04:14:48;103511.81;;;0.52;100.00
32324;BME280;25666;44.350;9.222;2023-02-11T04:17:14;103509.28;;;0.51;100.00
32324;BME280;25666;44.350;9.222;2023-02-11T04:19:40;103511.19;;;0.50;100.00
32324;BME280;25666;44.350;9.222;2023-02-11T04:22:05;103510.97;;;0.52;100.00
32324;BME280;25666;44.350;9.222;2023-02-11T04:24:31;103512.44;;;0.54;100.00
32324;BME280;25666;44.350;9.222;2023-02-11T04:26:57;103512.03;;;0.51;100.00
32324;BME280;25666;44.350;9.222;2023-02-11T04:29:22;103513.28;;;0.55;100.00
32324;BME280;25666;44.350;9.222;2023-02-11T04:31:48;103513.94;;;0.44;100.00
32324;BME280;25666;44.350;9.222;2023-02-11T04:34:14;103502.34;;;0.48;100.00
32324;BME280;25666;44.350;9.222;2023-02-11T04:36:40;103510.16;;;0.45;100.00
32324;BME280;25666;44.350;9.222;2023-02-11T04:39:05;103504.44;;;0.53;100.00
32324;BME280;25666;44.350;9.222;2023-02-11T04:41:31;103512.00;;;0.58;100.00
32324;BME280;25666;44.350;9.222;2023-02-11T04:43:56;103509.69;;;0.61;100.00
32324;BME280;25666;44.350;9.222;2023-02-11T04:46:22;103504.63;;;0.58;100.00
32324;BME280;25666;44.350;9.222;2023-02-11T04:48:47;103507.78;;;0.62;100.00
32324;BME280;25666;44.350;9.222;2023-02-11T04:51:13;103512.84;;;0.65;100.00
32324;BME280;25666;44.350;9.222;2023-02-11T04:53:38;103511.16;;;0.57;100.00
32324;BME280;25666;44.350;9.222;2023-02-11T04:56:04;103515.22;;;0.41;100.00
32324;BME280;25666;44.350;9.222;2023-02-11T04:58:29;103516.91;;;0.42;100.00
32324;BME280;25666;44.350;9.222;2023-02-11T05:00:55;103519.84;;;0.47;100.00
32324;BME280;25666;44.350;9.222;2023-02-11T05:03:20;103512.50;;;0.35;100.00
32324;BME280;25666;44.350;9.222;2023-02-11T05:05:46;103508.31;;;0.26;100.00
32324;BME280;25666;44.350;9.222;2023-02-11T05:08:11;103508.53;;;0.31;100.00
32324;BME280;25666;44.350;9.222;2023-02-11T05:10:37;103503.22;;;0.36;100.00
32324;BME280;25666;44.350;9.222;2023-02-11T05:13:02;103506.22;;;0.28;100.00
32324;BME280;25666;44.350;9.222;2023-02-11T05:15:28;103512.31;;;0.23;100.00
32324;BME280;25666;44.350;9.222;2023-02-11T05:17:54;103509.97;;;0.33;100.00
32324;BME280;25666;44.350;9.222;2023-02-11T05:20:20;103506.19;;;0.34;100.00
32324;BME280;25666;44.350;9.222;2023-02-11T05:22:46;103512.06;;;0.38;100.00
32324;BME280;25666;44.350;9.222;2023-02-11T05:25:11;103519.41;;;0.44;100.00
32324;BME280;25666;44.350;9.222;2023-02-11T05:27:37;103515.03;;;0.36;100.00
32324;BME280;25666;44.350;9.222;2023-02-11T05:30:03;103512.72;;;0.40;100.00
32324;BME280;25666;44.350;9.222;2023-02-11T05:32:29;103520.72;;;0.35;100.00
32324;BME280;25666;44.350;9.222;2023-02-11T05:34:54;103516.50;;;0.32;100.00
32324;BME280;25666;44.350;9.222;2023-02-11T05:37:20;103509.97;;;0.33;100.00
32324;BME280;25666;44.350;9.222;2023-02-11T05:39:45;103513.31;;;0.48;100.00
32324;BME280;25666;44.350;9.222;2023-02-11T05:42:12;103505.06;;;0.55;100.00
32324;BME280;25666;44.350;9.222;2023-02-11T05:44:37;103516.69;;;0.44;100.00
32324;BME280;25666;44.350;9.222;2023-02-11T05:47:03;103511.88;;;0.33;100.00
32324;BME280;25666;44.350;9.222;2023-02-11T05:49:28;103512.88;;;0.45;100.00
32324;BME280;25666;44.350;9.222;2023-02-11T05:51:54;103508.22;;;0.59;100.00
32324;BME280;25666;44.350;9.222;2023-02-11T05:54:19;103505.47;;;0.59;100.00
32324;BME280;25666;44.350;9.222;2023-02-11T05:56:45;103508.69;;;0.36;100.00
32324;BME280;25666;44.350;9.222;2023-02-11T05:59:13;103509.09;;;0.46;100.00
32324;BME280;25666;44.350;9.222;2023-02-11T06:01:39;103509.31;;;0.44;100.00
32324;BME280;25666;44.350;9.222;2023-02-11T06:04:04;103514.19;;;0.36;100.00
32324;BME280;25666;44.350;9.222;2023-02-11T06:06:30;103510.59;;;0.42;100.00
32324;BME280;25666;44.350;9.222;2023-02-11T06:08:55;103513.94;;;0.44;100.00
32324;BME280;25666;44.350;9.222;2023-02-11T06:11:20;103512.28;;;0.36;100.00
32324;BME280;25666;44.350;9.222;2023-02-11T06:13:46;103512.09;;;0.31;100.00
32324;BME280;25666;44.350;9.222;2023-02-11T06:16:11;103508.09;;;0.34;100.00
32324;BME280;25666;44.350;9.222;2023-02-11T06:18:37;103504.53;;;0.20;100.00
32324;BME280;25666;44.350;9.222;2023-02-11T06:21:06;103511.44;;;0.36;100.00
32324;BME280;25666;44.350;9.222;2023-02-11T06:23:32;103515.00;;;0.43;100.00
32324;BME280;25666;44.350;9.222;2023-02-11T06:26:13;103513.09;;;0.50;100.00
32324;BME280;25666;44.350;9.222;2023-02-11T06:28:39;103515.19;;;0.54;100.00
32324;BME280;25666;44.350;9.222;2023-02-11T06:31:06;103517.25;;;0.66;100.00
32324;BME280;25666;44.350;9.222;2023-02-11T06:33:32;103522.09;;;0.70;100.00
32324;BME280;25666;44.350;9.222;2023-02-11T06:35:58;103521.88;;;0.72;100.00
32324;BME280;25666;44.350;9.222;2023-02-11T06:38:23;103523.94;;;0.76;100.00
32324;BME280;25666;44.350;9.222;2023-02-11T06:40:50;103523.50;;;0.86;100.00
32324;BME280;25666;44.350;9.222;2023-02-11T06:43:16;103522.63;;;0.92;100.00
32324;BME280;25666;44.350;9.222;2023-02-11T06:45:41;103525.41;;;0.79;100.00
32324;BME280;25666;44.350;9.222;2023-02-11T06:48:07;103522.91;;;0.77;100.00
32324;BME280;25666;44.350;9.222;2023-02-11T06:50:32;103532.97;;;0.90;100.00
32324;BME280;25666;44.350;9.222;2023-02-11T06:52:58;103536.53;;;0.97;100.00
32324;BME280;25666;44.350;9.222;2023-02-11T06:55:24;103544.28;;;1.06;100.00
32324;BME280;25666;44.350;9.222;2023-02-11T06:57:50;103545.09;;;1.07;100.00
32324;BME280;25666;44.350;9.222;2023-02-11T07:00:16;103544.66;;;1.10;100.00
32324;BME280;25666;44.350;9.222;2023-02-11T07:02:41;103552.25;;;1.15;100.00
32324;BME280;25666;44.350;9.222;2023-02-11T07:05:07;103542.94;;;1.22;100.00
32324;BME280;25666;44.350;9.222;2023-02-11T07:07:32;103550.31;;;1.22;100.00
32324;BME280;25666;44.350;9.222;2023-02-11T07:09:58;103543.31;;;1.26;100.00
32324;BME280;25666;44.350;9.222;2023-02-11T07:12:24;103552.78;;;1.30;100.00
32324;BME280;25666;44.350;9.222;2023-02-11T07:14:49;103556.59;;;1.29;100.00
32324;BME280;25666;44.350;9.222;2023-02-11T07:17:14;103559.91;;;1.44;100.00
32324;BME280;25666;44.350;9.222;2023-02-11T07:19:40;103559.19;;;1.55;100.00
32324;BME280;25666;44.350;9.222;2023-02-11T07:22:05;103558.28;;;1.61;100.00
32324;BME280;25666;44.350;9.222;2023-02-11T07:24:31;103558.19;;;1.74;100.00
32324;BME280;25666;44.350;9.222;2023-02-11T07:26:57;103558.81;;;1.76;100.00
32324;BME280;25666;44.350;9.222;2023-02-11T07:29:22;103553.91;;;1.85;100.00
32324;BME280;25666;44.350;9.222;2023-02-11T07:31:47;103561.50;;;1.83;100.00
32324;BME280;25666;44.350;9.222;2023-02-11T07:34:13;103570.31;;;1.91;100.00
32324;BME280;25666;44.350;9.222;2023-02-11T07:36:38;103566.84;;;2.02;100.00
32324;BME280;25666;44.350;9.222;2023-02-11T07:39:04;103580.38;;;1.97;100.00
32324;BME280;25666;44.350;9.222;2023-02-11T07:41:29;103581.22;;;1.98;100.00
32324;BME280;25666;44.350;9.222;2023-02-11T07:43:55;103580.56;;;2.02;100.00
32324;BME280;25666;44.350;9.222;2023-02-11T07:46:26;103575.38;;;2.19;100.00
32324;BME280;25666;44.350;9.222;2023-02-11T07:48:52;103584.56;;;2.31;100.00
32324;BME280;25666;44.350;9.222;2023-02-11T07:51:29;103580.66;;;2.39;100.00
32324;BME280;25666;44.350;9.222;2023-02-11T07:53:57;103576.09;;;2.51;100.00
32324;BME280;25666;44.350;9.222;2023-02-11T07:56:23;103577.63;;;2.65;100.00
32324;BME280;25666;44.350;9.222;2023-02-11T07:58:49;103570.44;;;2.82;100.00
32324;BME280;25666;44.350;9.222;2023-02-11T08:01:20;103568.72;;;2.88;100.00
32324;BME280;25666;44.350;9.222;2023-02-11T08:03:49;103573.03;;;2.95;100.00
32324;BME280;25666;44.350;9.222;2023-02-11T08:06:17;103567.47;;;3.02;100.00
32324;BME280;25666;44.350;9.222;2023-02-11T08:08:45;103568.59;;;3.12;100.00
32324;BME280;25666;44.350;9.222;2023-02-11T08:11:22;103568.66;;;3.24;100.00
32324;BME280;25666;44.350;9.222;2023-02-11T08:13:48;103577.31;;;3.39;100.00
32324;BME280;25666;44.350;9.222;2023-02-11T08:16:31;103571.97;;;3.44;100.00
32324;BME280;25666;44.350;9.222;2023-02-11T08:19:00;103579.44;;;3.55;100.00
32324;BME280;25666;44.350;9.222;2023-02-11T08:21:26;103574.56;;;3.69;100.00
32324;BME280;25666;44.350;9.222;2023-02-11T08:23:52;103573.75;;;3.80;100.00
32324;BME280;25666;44.350;9.222;2023-02-11T08:26:19;103568.25;;;3.92;100.00
32324;BME280;25666;44.350;9.222;2023-02-11T08:28:46;103570.19;;;4.03;100.00
32324;BME280;25666;44.350;9.222;2023-02-11T08:31:18;103572.59;;;4.11;100.00
32324;BME280;25666;44.350;9.222;2023-02-11T08:33:45;103573.31;;;4.29;100.00
32324;BME280;25666;44.350;9.222;2023-02-11T08:36:19;103576.44;;;4.33;100.00
32324;BME280;25666;44.350;9.222;2023-02-11T08:38:45;103579.56;;;4.48;100.00
32324;BME280;25666;44.350;9.222;2023-02-11T08:41:11;103575.00;;;4.65;100.00
32324;BME280;25666;44.350;9.222;2023-02-11T08:43:39;103578.22;;;4.74;100.00
32324;BME280;25666;44.350;9.222;2023-02-11T08:46:07;103568.47;;;4.83;100.00
32324;BME280;25666;44.350;9.222;2023-02-11T08:48:33;103571.81;;;4.97;100.00
32324;BME280;25666;44.350;9.222;2023-02-11T08:50:59;103572.97;;;5.12;100.00
32324;BME280;25666;44.350;9.222;2023-02-11T08:53:24;103578.44;;;5.24;100.00
32324;BME280;25666;44.350;9.222;2023-02-11T08:55:51;103578.75;;;5.39;100.00
32324;BME280;25666;44.350;9.222;2023-02-11T08:58:17;103575.09;;;5.50;100.00
32324;BME280;25666;44.350;9.222;2023-02-11T09:00:43;103582.06;;;5.53;100.00
32324;BME280;25666;44.350;9.222;2023-02-11T09:03:13;103584.25;;;5.67;100.00
32324;BME280;25666;44.350;9.222;2023-02-11T09:05:44;103587.66;;;5.86;100.00
32324;BME280;25666;44.350;9.222;2023-02-11T09:08:10;103589.78;;;6.12;100.00
32324;BME280;25666;44.350;9.222;2023-02-11T09:10:36;103588.88;;;6.23;100.00
32324;BME280;25666;44.350;9.222;2023-02-11T09:13:02;103592.13;;;6.37;100.00
32324;BME280;25666;44.350;9.222;2023-02-11T09:15:28;103589.25;;;6.48;100.00
32324;BME280;25666;44.350;9.222;2023-02-11T09:17:54;103594.38;;;6.57;100.00
32324;BME280;25666;44.350;9.222;2023-02-11T09:20:19;103594.13;;;6.80;100.00
32324;BME280;25666;44.350;9.222;2023-02-11T09:22:45;103588.56;;;6.96;100.00
32324;BME280;25666;44.350;9.222;2023-02-11T09:25:11;103590.03;;;7.26;100.00
32324;BME280;25666;44.350;9.222;2023-02-11T09:27:36;103586.28;;;7.37;100.00
32324;BME280;25666;44.350;9.222;2023-02-11T09:30:02;103586.44;;;7.52;100.00
32324;BME280;25666;44.350;9.222;2023-02-11T09:32:28;103590.50;;;7.66;100.00
32324;BME280;25666;44.350;9.222;2023-02-11T09:34:53;103591.47;;;7.82;100.00
32324;BME280;25666;44.350;9.222;2023-02-11T09:37:19;103589.75;;;7.76;100.00
32324;BME280;25666;44.350;9.222;2023-02-11T09:39:44;103593.00;;;7.94;100.00
32324;BME280;25666;44.350;9.222;2023-02-11T09:44:54;103590.38;;;8.15;100.00
32324;BME280;25666;44.350;9.222;2023-02-11T09:47:31;103588.81;;;8.24;100.00
32324;BME280;25666;44.350;9.222;2023-02-11T09:50:03;103599.13;;;8.28;100.00
32324;BME280;25666;44.350;9.222;2023-02-11T09:52:49;103602.28;;;8.42;100.00
32324;BME280;25666;44.350;9.222;2023-02-11T09:55:20;103605.63;;;8.44;100.00
32324;BME280;25666;44.350;9.222;2023-02-11T09:57:47;103597.84;;;8.41;100.00
32324;BME280;25666;44.350;9.222;2023-02-11T10:00:27;103593.13;;;8.41;100.00
32324;BME280;25666;44.350;9.222;2023-02-11T10:19:49;103608.97;;;8.83;100.00
32324;BME280;25666;44.350;9.222;2023-02-11T10:22:23;103603.66;;;8.81;100.00
32324;BME280;25666;44.350;9.222;2023-02-11T10:24:57;103616.75;;;8.86;100.00
32324;BME280;25666;44.350;9.222;2023-02-11T10:27:33;103610.31;;;8.80;100.00
32324;BME280;25666;44.350;9.222;2023-02-11T10:30:21;103613.94;;;8.81;100.00
32324;BME280;25666;44.350;9.222;2023-02-11T10:35:39;103613.94;;;8.81;100.00
32324;BME280;25666;44.350;9.222;2023-02-11T10:38:07;103613.16;;;8.90;100.00
32324;BME280;25666;44.350;9.222;2023-02-11T10:40:33;103601.84;;;9.02;100.00
32324;BME280;25666;44.350;9.222;2023-02-11T10:43:02;103604.88;;;8.95;100.00
32324;BME280;25666;44.350;9.222;2023-02-11T10:45:35;103604.31;;;8.98;100.00
32324;BME280;25666;44.350;9.222;2023-02-11T10:48:04;103607.34;;;8.97;100.00
32324;BME280;25666;44.350;9.222;2023-02-11T10:50:33;103601.56;;;9.08;100.00
32324;BME280;25666;44.350;9.222;2023-02-11T10:53:18;103597.19;;;9.18;100.00
32324;BME280;25666;44.350;9.222;2023-02-11T10:55:53;103596.66;;;9.26;100.00
32324;BME280;25666;44.350;9.222;2023-02-11T11:01:00;103592.53;;;9.33;100.00
32324;BME280;25666;44.350;9.222;2023-02-11T11:03:29;103585.81;;;9.29;100.00
32324;BME280;25666;44.350;9.222;2023-02-11T11:06:04;103593.91;;;9.36;100.00
32324;BME280;25666;44.350;9.222;2023-02-11T11:08:41;103599.19;;;9.37;100.00
32324;BME280;25666;44.350;9.222;2023-02-11T11:11:12;103597.00;;;9.39;100.00
32324;BME280;25666;44.350;9.222;2023-02-11T11:13:40;103593.13;;;9.50;100.00
32324;BME280;25666;44.350;9.222;2023-02-11T11:18:40;103579.53;;;9.64;100.00
32324;BME280;25666;44.350;9.222;2023-02-11T11:24:01;103578.44;;;9.70;100.00
32324;BME280;25666;44.350;9.222;2023-02-11T11:26:39;103571.72;;;9.71;100.00
32324;BME280;25666;44.350;9.222;2023-02-11T11:29:13;103577.03;;;9.67;100.00
32324;BME280;25666;44.350;9.222;2023-02-11T11:31:54;103575.91;;;9.68;100.00
32324;BME280;25666;44.350;9.222;2023-02-11T11:36:50;103574.28;;;9.83;100.00
32324;BME280;25666;44.350;9.222;2023-02-11T11:42:01;103574.56;;;9.91;100.00
32324;BME280;25666;44.350;9.222;2023-02-11T11:44:35;103575.94;;;10.04;100.00
32324;BME280;25666;44.350;9.222;2023-02-11T11:49:50;103567.88;;;10.12;100.00
32324;BME280;25666;44.350;9.222;2023-02-11T11:57:36;103555.38;;;10.25;100.00
32324;BME280;25666;44.350;9.222;2023-02-11T12:00:02;103564.88;;;10.24;100.00
32324;BME280;25666;44.350;9.222;2023-02-11T12:21:47;103544.78;;;10.12;100.00
32324;BME280;25666;44.350;9.222;2023-02-11T12:24:35;103539.50;;;10.15;100.00
32324;BME280;25666;44.350;9.222;2023-02-11T12:27:07;103539.81;;;10.14;100.00
32324;BME280;25666;44.350;9.222;2023-02-11T12:51:24;103497.47;;;10.12;100.00
32324;BME280;25666;44.350;9.222;2023-02-11T12:59:43;103504.16;;;10.06;100.00
32324;BME280;25666;44.350;9.222;2023-02-11T13:05:30;103489.16;;;10.17;100.00
32324;BME280;25666;44.350;9.222;2023-02-11T13:08:04;103487.75;;;10.19;100.00
32324;BME280;25666;44.350;9.222;2023-02-11T13:10:35;103483.81;;;10.31;100.00
32324;BME280;25666;44.350;9.222;2023-02-11T13:13:17;103475.75;;;10.29;100.00
32324;BME280;25666;44.350;9.222;2023-02-11T13:15:49;103476.31;;;10.26;100.00
32324;BME280;25666;44.350;9.222;2023-02-11T13:26:41;103464.38;;;10.20;100.00
32324;BME280;25666;44.350;9.222;2023-02-11T13:32:07;103462.69;;;10.30;100.00
32324;BME280;25666;44.350;9.222;2023-02-11T13:37:25;103460.69;;;10.40;100.00
32324;BME280;25666;44.350;9.222;2023-02-11T13:39:57;103445.34;;;10.48;100.00
32324;BME280;25666;44.350;9.222;2023-02-11T13:42:23;103445.09;;;10.49;100.00
32324;BME280;25666;44.350;9.222;2023-02-11T13:44:48;103441.72;;;10.52;100.00
32324;BME280;25666;44.350;9.222;2023-02-11T13:49:52;103436.94;;;10.63;100.00
32324;BME280;25666;44.350;9.222;2023-02-11T13:54:51;103438.88;;;10.62;100.00
32324;BME280;25666;44.350;9.222;2023-02-11T13:57:26;103433.28;;;10.72;100.00
32324;BME280;25666;44.350;9.222;2023-02-11T14:16:18;103414.19;;;10.95;100.00
32324;BME280;25666;44.350;9.222;2023-02-11T14:29:17;103421.59;;;10.70;100.00
32324;BME280;25666;44.350;9.222;2023-02-11T14:32:16;103426.06;;;10.66;100.00
32324;BME280;25666;44.350;9.222;2023-02-11T14:34:55;103423.31;;;10.61;100.00
32324;BME280;25666;44.350;9.222;2023-02-11T14:42:23;103416.09;;;10.55;100.00
32324;BME280;25666;44.350;9.222;2023-02-11T14:44:52;103409.41;;;10.46;100.00
32324;BME280;25666;44.350;9.222;2023-02-11T14:47:24;103410.56;;;10.45;100.00
32324;BME280;25666;44.350;9.222;2023-02-11T14:49:53;103411.13;;;10.42;100.00
32324;BME280;25666;44.350;9.222;2023-02-11T14:52:26;103395.56;;;10.36;100.00
32324;BME280;25666;44.350;9.222;2023-02-11T14:55:03;103402.28;;;10.30;100.00
32324;BME280;25666;44.350;9.222;2023-02-11T14:57:30;103410.34;;;10.27;100.00
32324;BME280;25666;44.350;9.222;2023-02-11T15:00:18;103407.06;;;10.14;100.00
32324;BME280;25666;44.350;9.222;2023-02-11T15:02:44;103411.75;;;10.09;100.00
32324;BME280;25666;44.350;9.222;2023-02-11T15:07:50;103409.81;;;9.99;100.00
32324;BME280;25666;44.350;9.222;2023-02-11T15:10:32;103407.94;;;9.90;100.00
32324;BME280;25666;44.350;9.222;2023-02-11T15:13:00;103407.91;;;9.95;100.00
32324;BME280;25666;44.350;9.222;2023-02-11T15:15:27;103410.69;;;9.85;100.00
32324;BME280;25666;44.350;9.222;2023-02-11T15:17:54;103403.47;;;9.84;100.00
32324;BME280;25666;44.350;9.222;2023-02-11T15:20:27;103406.56;;;9.77;100.00
32324;BME280;25666;44.350;9.222;2023-02-11T15:22:57;103413.78;;;9.73;100.00
32324;BME280;25666;44.350;9.222;2023-02-11T15:25:24;103405.69;;;9.72;100.00
32324;BME280;25666;44.350;9.222;2023-02-11T15:27:53;103406.00;;;9.70;100.00
32324;BME280;25666;44.350;9.222;2023-02-11T15:32:46;103408.78;;;9.50;100.00
32324;BME280;25666;44.350;9.222;2023-02-11T15:35:12;103398.22;;;9.47;100.00
32324;BME280;25666;44.350;9.222;2023-02-11T15:37:40;103397.66;;;9.50;100.00
32324;BME280;25666;44.350;9.222;2023-02-11T15:40:14;103395.16;;;9.43;100.00
32324;BME280;25666;44.350;9.222;2023-02-11T15:42:51;103405.19;;;9.39;100.00
32324;BME280;25666;44.350;9.222;2023-02-11T15:45:27;103401.84;;;9.32;100.00
32324;BME280;25666;44.350;9.222;2023-02-11T15:50:39;103393.47;;;9.22;100.00
32324;BME280;25666;44.350;9.222;2023-02-11T15:53:26;103405.41;;;9.12;100.00
32324;BME280;25666;44.350;9.222;2023-02-11T15:58:43;103403.47;;;9.13;100.00